Time;durP1;ratioP1;P1;durP2;ratioP2;P2;SDS_P1;SDS_P2;PMS_P1;PMS_P2;Temp;Humidity;BMP_temperature;BMP_pressure;BME280_temperature;BME280_humidity;BME280_pressure;Samples;Min_cycle;Max_cycle;Signal;HPM_P1;HPM_P2
2021/10/18 00:02:01;;;;;;;9.67;5.30;;;;;;;;;;5072863;28;20671;-70
2021/10/18 00:04:27;;;;;;;8.13;5.40;;;;;;;;;;5072822;28;20658;-69
2021/10/18 00:06:53;;;;;;;7.70;5.17;;;;;;;;;;5072656;28;20363;-70
2021/10/18 00:09:20;;;;;;;7.27;5.03;;;;;;;;;;5072989;28;20216;-71
2021/10/18 00:11:46;;;;;;;7.93;5.40;;;;;;;;;;5072567;28;20666;-70
2021/10/18 00:14:12;;;;;;;8.23;5.70;;;;;;;;;;5071795;28;20200;-69
2021/10/18 00:16:39;;;;;;;9.83;5.47;;;;;;;;;;5072637;28;20299;-69
2021/10/18 00:19:06;;;;;;;9.13;5.33;;;;;;;;;;5072607;28;20759;-69
2021/10/18 00:21:32;;;;;;;11.23;6.13;;;;;;;;;;5071679;28;20256;-70
2021/10/18 00:23:59;;;;;;;8.57;5.93;;;;;;;;;;5072661;28;20287;-70
2021/10/18 00:26:25;;;;;;;9.10;5.27;;;;;;;;;;5090611;28;20200;-69
2021/10/18 00:28:51;;;;;;;7.93;5.67;;;;;;;;;;5091699;28;20244;-70
2021/10/18 00:31:19;;;;;;;11.83;6.10;;;;;;;;;;5092062;28;20231;-69
2021/10/18 00:33:45;;;;;;;8.93;5.77;;;;;;;;;;5092714;28;20632;-69
2021/10/18 00:36:12;;;;;;;9.83;6.40;;;;;;;;;;5092795;28;20292;-70
2021/10/18 00:38:38;;;;;;;10.07;5.77;;;;;;;;;;5092734;28;20716;-69
2021/10/18 00:41:05;;;;;;;8.87;5.80;;;;;;;;;;5091925;28;20320;-70
2021/10/18 00:43:31;;;;;;;7.37;5.53;;;;;;;;;;5092702;28;20206;-69
2021/10/18 00:45:58;;;;;;;12.83;6.23;;;;;;;;;;5088345;28;20197;-69
2021/10/18 00:48:25;;;;;;;7.73;5.27;;;;;;;;;;5072129;28;20201;-71
2021/10/18 00:50:56;;;;;;;8.57;5.93;;;;;;;;;;5071173;28;20225;-71
2021/10/18 00:53:25;;;;;;;9.57;6.60;;;;;;;;;;5072222;28;20291;-70
2021/10/18 00:55:51;;;;;;;9.57;6.83;;;;;;;;;;5070838;28;20284;-70
2021/10/18 00:58:18;;;;;;;11.37;6.93;;;;;;;;;;5072406;28;20208;-71
2021/10/18 01:35:00;;;;;;;14.17;7.77;;;;;;;-143.37;100.00;65745.06;5110281;27;20492;-69
2021/10/18 01:37:27;;;;;;;12.73;8.00;;;;;;;-143.37;100.00;65745.06;5109449;28;20302;-69
2021/10/18 01:39:53;;;;;;;13.00;8.10;;;;;;;-143.37;100.00;65745.06;5124382;27;20303;-69
2021/10/18 01:42:20;;;;;;;10.40;7.30;;;;;;;-143.37;100.00;65745.06;5109250;28;20319;-69
2021/10/18 01:44:46;;;;;;;12.47;7.97;;;;;;;-143.37;100.00;65745.06;5108018;28;20291;-70
2021/10/18 01:47:13;;;;;;;9.57;6.90;;;;;;;-143.37;100.00;65745.06;5095037;28;20204;-70
2021/10/18 01:49:39;;;;;;;11.80;7.67;;;;;;;-143.37;100.00;65745.06;5088664;28;20299;-70
2021/10/18 01:52:06;;;;;;;9.20;6.30;;;;;;;-143.37;100.00;65745.06;5089297;28;20815;-70
2021/10/18 01:54:32;;;;;;;10.03;6.63;;;;;;;-143.37;100.00;65745.06;5087745;28;20679;-70
2021/10/18 01:56:59;;;;;;;11.67;6.83;;;;;;;-143.37;100.00;65745.06;5070884;28;20291;-70
2021/10/18 01:59:26;;;;;;;9.97;6.27;;;;;;;-143.37;100.00;65745.06;5088101;28;20298;-70
2021/10/18 02:01:52;;;;;;;9.50;6.37;;;;;;;-143.37;100.00;65745.06;5088945;28;20228;-69
2021/10/18 02:04:19;;;;;;;9.53;6.67;;;;;;;-143.37;100.00;65745.06;5088755;28;20200;-70
2021/10/18 02:06:45;;;;;;;8.97;5.80;;;;;;;-143.37;100.00;65745.06;5088577;28;20232;-70
2021/10/18 02:09:12;;;;;;;10.03;5.73;;;;;;;-143.37;100.00;65745.06;5087595;28;20244;-69
2021/10/18 02:11:38;;;;;;;8.10;5.40;;;;;;;-143.37;100.00;65745.06;5087600;28;20319;-69
2021/10/18 02:14:05;;;;;;;8.87;6.17;;;;;;;-143.37;100.00;65745.06;5086879;28;20674;-71
2021/10/18 02:16:31;;;;;;;9.27;6.07;;;;;;;-143.37;100.00;65745.06;5088427;28;20287;-69
2021/10/18 02:18:58;;;;;;;9.83;6.30;;;;;;;-143.37;100.00;65745.06;5088363;28;20307;-70
2021/10/18 02:21:24;;;;;;;8.50;5.57;;;;;;;-143.37;100.00;65745.06;5086317;28;20267;-69
2021/10/18 02:23:51;;;;;;;9.57;5.83;;;;;;;-143.37;100.00;65745.06;5086830;28;20634;-69
2021/10/18 02:26:17;;;;;;;8.53;5.80;;;;;;;-143.37;100.00;65745.06;5105109;28;20235;-69
2021/10/18 02:28:44;;;;;;;8.40;6.03;;;;;;;-143.37;100.00;65745.06;5108204;28;20200;-68
2021/10/18 02:31:11;;;;;;;9.90;6.33;;;;;;;-143.37;100.00;65745.06;5107753;28;20311;-70
2021/10/18 02:33:37;;;;;;;10.07;6.07;;;;;;;-143.37;100.00;65745.06;5108129;28;20284;-69
2021/10/18 02:36:04;;;;;;;10.63;6.63;;;;;;;-143.37;100.00;65745.06;5108186;28;20646;-69
2021/10/18 02:38:30;;;;;;;9.27;6.00;;;;;;;-143.37;100.00;65745.06;5108123;28;20243;-69
2021/10/18 02:40:57;;;;;;;9.30;6.17;;;;;;;-143.37;100.00;65745.06;5106262;28;20695;-69
2021/10/18 02:43:23;;;;;;;8.90;6.53;;;;;;;-143.37;100.00;65745.06;5107913;28;20300;-69
2021/10/18 02:45:50;;;;;;;10.17;6.40;;;;;;;-143.37;100.00;65745.06;5093216;28;20197;-69
2021/10/18 02:48:17;;;;;;;9.50;6.53;;;;;;;-143.37;100.00;65745.06;5072957;28;20244;-69
2021/10/18 02:50:44;;;;;;;13.60;6.27;;;;;;;-143.37;100.00;65745.06;5073511;28;20240;-69
2021/10/18 02:53:11;;;;;;;9.23;5.90;;;;;;;-143.37;100.00;65745.06;5074074;28;20292;-69
2021/10/18 02:55:37;;;;;;;9.90;6.37;;;;;;;-143.37;100.00;65745.06;5073910;28;20244;-69
2021/10/18 02:58:03;;;;;;;11.77;6.00;;;;;;;-143.37;100.00;65745.06;5074098;28;20229;-70
2021/10/18 03:00:30;;;;;;;8.47;6.47;;;;;;;-143.37;100.00;65745.06;5073618;28;20383;-69
2021/10/18 03:02:57;;;;;;;10.00;6.80;;;;;;;-143.37;100.00;65745.06;5074026;28;20300;-69
2021/10/18 03:05:23;;;;;;;10.30;6.47;;;;;;;-143.37;100.00;65745.06;5074103;28;20209;-70
2021/10/18 03:07:52;;;;;;;9.60;6.03;;;;;;;-143.37;100.00;65745.06;5073825;28;20311;-69
2021/10/18 03:10:19;;;;;;;9.73;6.10;;;;;;;-143.37;100.00;65745.06;5072979;28;20207;-69
2021/10/18 03:12:47;;;;;;;13.20;6.80;;;;;;;-143.37;100.00;65745.06;5074023;28;20320;-69
2021/10/18 03:15:13;;;;;;;10.77;6.20;;;;;;;-143.37;100.00;65745.06;5073798;28;20239;-69
2021/10/18 03:17:40;;;;;;;14.40;6.43;;;;;;;-143.37;100.00;65745.06;5073637;28;20229;-70
2021/10/18 03:20:08;;;;;;;8.77;6.23;;;;;;;-143.37;100.00;65745.06;5072859;28;20632;-69
2021/10/18 03:22:36;;;;;;;8.07;5.63;;;;;;;-143.37;100.00;65745.06;5073577;28;20263;-70
2021/10/18 03:25:06;;;;;;;9.37;6.27;;;;;;;-143.37;100.00;65745.06;5080154;28;20239;-69
2021/10/18 03:27:33;;;;;;;7.83;5.63;;;;;;;-143.37;100.00;65745.06;5092783;28;20295;-69
2021/10/18 03:30:00;;;;;;;8.73;5.63;;;;;;;-143.37;100.00;65745.06;5093042;28;20251;-71
2021/10/18 03:32:26;;;;;;;9.17;5.53;;;;;;;-143.37;100.00;65745.06;5093500;28;20256;-69
2021/10/18 03:34:53;;;;;;;7.77;5.43;;;;;;;-143.37;100.00;65745.06;5093430;28;20318;-70
2021/10/18 03:37:19;;;;;;;8.27;4.93;;;;;;;-143.37;100.00;65745.06;5093402;28;20227;-70
2021/10/18 03:39:46;;;;;;;7.57;5.10;;;;;;;-143.37;100.00;65745.06;5093150;28;20236;-70
2021/10/18 03:42:12;;;;;;;9.87;4.80;;;;;;;-143.37;100.00;65745.06;5093921;28;20235;-71
2021/10/18 03:44:39;;;;;;;15.10;5.27;;;;;;;-143.37;100.00;65745.06;5094075;28;20303;-70
2021/10/18 03:47:05;;;;;;;12.70;5.53;;;;;;;-143.37;100.00;65745.06;5081489;28;20205;-70
2021/10/18 03:49:32;;;;;;;9.37;5.70;;;;;;;-143.37;100.00;65745.06;5076338;28;20224;-70
2021/10/18 03:51:58;;;;;;;9.27;5.27;;;;;;;-143.37;100.00;65745.06;5074450;28;20233;-69
2021/10/18 03:54:25;;;;;;;10.03;5.30;;;;;;;-143.37;100.00;65745.06;5073479;28;20253;-70
2021/10/18 03:56:51;;;;;;;6.50;4.90;;;;;;;-143.37;100.00;65745.06;5072328;28;20632;-69
2021/10/18 03:59:18;;;;;;;6.43;4.80;;;;;;;-143.37;100.00;65745.06;5071882;28;20645;-69
2021/10/18 04:01:44;;;;;;;8.00;5.20;;;;;;;-143.37;100.00;65745.06;5072233;28;20306;-69
2021/10/18 04:04:11;;;;;;;7.20;5.20;;;;;;;-143.37;100.00;65745.06;5072837;28;20197;-70
2021/10/18 04:06:37;;;;;;;12.00;5.50;;;;;;;-143.37;100.00;65745.06;5071247;28;20209;-69
2021/10/18 04:09:04;;;;;;;9.57;5.10;;;;;;;-143.37;100.00;65745.06;5072709;28;20300;-69
2021/10/18 04:11:37;;;;;;;7.63;5.30;;;;;;;-143.37;100.00;65745.06;5071991;28;20312;-69
2021/10/18 04:14:05;;;;;;;9.00;5.93;;;;;;;-143.37;100.00;65745.06;5072551;28;20336;-69
2021/10/18 04:16:32;;;;;;;8.67;5.07;;;;;;;-143.37;100.00;65745.06;5072293;28;20201;-69
2021/10/18 04:18:59;;;;;;;10.43;6.00;;;;;;;-143.37;100.00;65745.06;5072035;28;20209;-69
2021/10/18 04:21:26;;;;;;;11.97;5.47;;;;;;;-143.37;100.00;65745.06;5087105;28;20226;-69
2021/10/18 04:23:54;;;;;;;8.83;5.80;;;;;;;-143.37;100.00;65745.06;5072226;28;20213;-68
2021/10/18 04:26:20;;;;;;;7.37;5.10;;;;;;;-143.37;100.00;65745.06;5089121;28;20243;-69
2021/10/18 04:28:47;;;;;;;11.47;5.70;;;;;;;-143.37;100.00;65745.06;5091145;28;20303;-69
2021/10/18 04:31:13;;;;;;;9.27;5.50;;;;;;;-143.37;100.00;65745.06;5081548;28;20263;-68
2021/10/18 04:33:40;;;;;;;9.20;5.60;;;;;;;-143.37;100.00;65745.06;5070434;28;20232;-68
2021/10/18 04:36:06;;;;;;;11.47;5.17;;;;;;;-143.37;100.00;65745.06;5071944;28;20678;-69
2021/10/18 04:38:33;;;;;;;9.27;5.73;;;;;;;-143.37;100.00;65745.06;5072176;28;20308;-69
2021/10/18 04:40:59;;;;;;;7.93;5.43;;;;;;;-143.37;100.00;65745.06;5081954;28;20315;-68
2021/10/18 04:43:26;;;;;;;10.17;6.20;;;;;;;-143.37;100.00;65745.06;5092186;28;20208;-70
2021/10/18 04:45:52;;;;;;;8.57;5.83;;;;;;;-143.37;100.00;65745.06;5088822;28;20280;-69
2021/10/18 04:48:19;;;;;;;9.03;5.57;;;;;;;-143.37;100.00;65745.06;5071801;28;20618;-68
2021/10/18 04:50:45;;;;;;;8.10;5.30;;;;;;;-143.37;100.00;65745.06;5077360;28;20283;-68
2021/10/18 04:53:12;;;;;;;8.70;5.57;;;;;;;-143.37;100.00;65745.06;5092140;28;20769;-69
2021/10/18 04:55:38;;;;;;;13.17;6.27;;;;;;;-143.37;100.00;65745.06;5085125;28;20216;-68
2021/10/18 04:58:05;;;;;;;9.00;5.87;;;;;;;-143.37;100.00;65745.06;5071528;28;20295;-69
2021/10/18 05:00:36;;;;;;;7.40;5.13;;;;;;;-143.37;100.00;65745.06;5073753;28;20196;-69
2021/10/18 05:03:03;;;;;;;14.00;5.50;;;;;;;-143.37;100.00;65745.06;5091755;28;20208;-70
2021/10/18 05:05:31;;;;;;;8.07;5.57;;;;;;;-143.37;100.00;65745.06;5090479;28;20200;-68
2021/10/18 05:08:03;;;;;;;9.33;5.93;;;;;;;-143.37;100.00;65745.06;5090300;28;20765;-68
2021/10/18 05:10:30;;;;;;;10.33;5.80;;;;;;;-143.37;100.00;65745.06;5090968;28;20295;-68
2021/10/18 05:12:58;;;;;;;9.40;6.77;;;;;;;-143.37;100.00;65745.06;5091822;28;20211;-68
2021/10/18 05:15:25;;;;;;;8.33;5.73;;;;;;;-143.37;100.00;65745.06;5091497;28;20228;-68
2021/10/18 05:17:52;;;;;;;11.37;6.67;;;;;;;-143.37;100.00;65745.06;5091796;28;20287;-69
2021/10/18 05:20:19;;;;;;;9.23;5.93;;;;;;;-143.37;100.00;65745.06;5091413;28;20240;-69
2021/10/18 05:22:45;;;;;;;10.00;6.87;;;;;;;-143.37;100.00;65745.06;5091771;28;20395;-69
2021/10/18 05:25:12;;;;;;;10.23;6.60;;;;;;;-143.37;100.00;65745.06;5091399;28;20733;-69
2021/10/18 05:27:39;;;;;;;9.97;6.97;;;;;;;-143.37;100.00;65745.06;5090538;28;20291;-69
2021/10/18 05:30:08;;;;;;;9.40;6.63;;;;;;;-143.37;100.00;65745.06;5091051;28;20247;-70
2021/10/18 05:32:35;;;;;;;10.40;6.57;;;;;;;-143.37;100.00;65745.06;5091532;28;20258;-69
2021/10/18 05:35:03;;;;;;;10.60;7.27;;;;;;;-143.37;100.00;65745.06;5088087;28;20789;-70
2021/10/18 05:37:29;;;;;;;10.47;6.80;;;;;;;-143.37;100.00;65745.06;5074841;28;20265;-70
2021/10/18 05:39:56;;;;;;;10.00;6.70;;;;;;;-143.37;100.00;65745.06;5081143;28;20701;-70
2021/10/18 05:42:22;;;;;;;11.73;6.90;;;;;;;-143.37;100.00;65745.06;5081231;28;20278;-69
2021/10/18 05:44:49;;;;;;;10.13;6.33;;;;;;;-143.37;100.00;65745.06;5082455;28;20717;-69
2021/10/18 05:47:15;;;;;;;7.83;6.27;;;;;;;-143.37;100.00;65745.06;5090950;28;20240;-69
2021/10/18 05:49:42;;;;;;;9.30;6.37;;;;;;;-143.37;100.00;65745.06;5089875;28;20291;-70
2021/10/18 05:52:08;;;;;;;9.50;6.70;;;;;;;-143.37;100.00;65745.06;5071169;28;20363;-69
2021/10/18 05:54:35;;;;;;;11.53;7.07;;;;;;;-143.37;100.00;65745.06;5070011;28;20308;-70
2021/10/18 05:57:18;;;;;;;10.50;6.47;;;;;;;-143.37;100.00;65745.06;5071117;28;20197;-69
2021/10/18 05:59:44;;;;;;;10.53;6.47;;;;;;;-143.37;100.00;65745.06;5070499;28;20343;-71
2021/10/18 06:02:11;;;;;;;10.33;6.93;;;;;;;-143.37;100.00;65745.06;5069810;28;20640;-70
2021/10/18 06:04:42;;;;;;;11.80;6.70;;;;;;;-143.37;100.00;65745.06;5070886;28;20308;-69
2021/10/18 06:07:10;;;;;;;12.43;6.67;;;;;;;-143.37;100.00;65745.06;5070853;28;20266;-70
2021/10/18 06:09:36;;;;;;;14.00;7.10;;;;;;;-143.37;100.00;65745.06;5070016;28;20232;-70
2021/10/18 06:12:04;;;;;;;11.03;6.63;;;;;;;-143.37;100.00;65745.06;5052576;28;20760;-70
2021/10/18 06:14:30;;;;;;;11.17;7.67;;;;;;;-143.37;100.00;65745.06;5070984;28;20225;-71
2021/10/18 06:16:57;;;;;;;8.27;5.83;;;;;;;-143.37;100.00;65745.06;5070923;28;20284;-70
2021/10/18 06:19:23;;;;;;;13.10;6.93;;;;;;;-143.37;100.00;65745.06;5068956;28;20231;-70
2021/10/18 06:21:50;;;;;;;13.63;7.13;;;;;;;-143.37;100.00;65745.06;5073001;28;20312;-70
2021/10/18 06:24:16;;;;;;;10.77;6.70;;;;;;;-143.37;100.00;65745.06;5074831;28;20205;-71
2021/10/18 06:26:43;;;;;;;9.40;6.00;;;;;;;-143.37;100.00;65745.06;5094467;28;20585;-71
2021/10/18 06:29:10;;;;;;;11.30;7.13;;;;;;;-143.37;100.00;65745.06;5098895;28;20232;-71
2021/10/18 06:31:36;;;;;;;12.27;7.00;;;;;;;-143.37;100.00;65745.06;5099917;28;20258;-70
2021/10/18 06:34:03;;;;;;;12.50;7.03;;;;;;;-143.37;100.00;65745.06;5098226;28;20239;-69
2021/10/18 06:36:30;;;;;;;10.80;7.43;;;;;;;-143.37;100.00;65745.06;5094159;28;20577;-70
2021/10/18 06:38:57;;;;;;;10.97;6.80;;;;;;;-143.37;100.00;65745.06;5093584;28;20212;-70
2021/10/18 06:41:24;;;;;;;11.63;7.30;;;;;;;-143.37;100.00;65745.06;5093919;28;20224;-71
2021/10/18 06:43:52;;;;;;;12.07;6.97;;;;;;;-143.37;100.00;65745.06;5093220;28;20235;-70
2021/10/18 06:46:18;;;;;;;11.90;7.20;;;;;;;-143.37;100.00;65745.06;5086474;28;20190;-71
2021/10/18 06:48:45;;;;;;;12.97;7.83;;;;;;;-143.37;100.00;65745.06;5072883;28;20213;-71
2021/10/18 06:51:11;;;;;;;12.53;7.80;;;;;;;-143.37;100.00;65745.06;5055524;28;20316;-70
2021/10/18 06:53:39;;;;;;;12.10;7.33;;;;;;;-143.37;100.00;65745.06;5073951;28;20205;-71
2021/10/18 06:56:06;;;;;;;13.70;8.80;;;;;;;-143.37;100.00;65745.06;5074177;28;20304;-71
2021/10/18 06:58:33;;;;;;;13.03;8.30;;;;;;;-143.37;100.00;65745.06;5073867;28;20295;-71
2021/10/18 07:01:00;;;;;;;13.57;8.13;;;;;;;-143.37;100.00;65745.06;5073194;28;20260;-70
2021/10/18 07:03:27;;;;;;;16.33;9.10;;;;;;;-143.37;100.00;65745.06;5073884;28;20248;-70
2021/10/18 07:05:54;;;;;;;13.47;8.30;;;;;;;-143.37;100.00;65745.06;5073665;28;21197;-70
2021/10/18 07:08:21;;;;;;;14.73;9.40;;;;;;;-143.37;100.00;65745.06;5072559;28;20644;-71
2021/10/18 07:10:48;;;;;;;15.07;9.00;;;;;;;-143.37;100.00;65745.06;5055425;28;20212;-69
2021/10/18 07:13:14;;;;;;;16.63;9.30;;;;;;;-143.37;100.00;65745.06;5073517;28;20234;-70
2021/10/18 07:15:41;;;;;;;16.33;9.97;;;;;;;-143.37;100.00;65745.06;5072451;28;20312;-71
2021/10/18 07:18:08;;;;;;;15.43;9.20;;;;;;;-143.37;100.00;65745.06;5073653;28;20291;-70
2021/10/18 07:20:35;;;;;;;18.60;10.70;;;;;;;-143.37;100.00;65745.06;5073053;28;20213;-71
2021/10/18 07:23:06;;;;;;;17.23;10.03;;;;;;;-143.37;100.00;65745.06;5072467;28;20292;-70
2021/10/18 07:25:33;;;;;;;17.00;11.27;;;;;;;-143.37;100.00;65745.06;5084449;28;20607;-71
2021/10/18 07:28:00;;;;;;;16.33;9.87;;;;;;;-143.37;100.00;65745.06;5092771;28;20312;-69
2021/10/18 07:30:26;;;;;;;18.27;10.77;;;;;;;-143.37;100.00;65745.06;5091882;28;20299;-69
2021/10/18 07:32:53;;;;;;;15.47;9.70;;;;;;;-143.37;100.00;65745.06;5093249;28;20331;-70
2021/10/18 07:35:22;;;;;;;16.90;10.30;;;;;;;-143.37;100.00;65745.06;5093691;28;20315;-70
2021/10/18 07:37:54;;;;;;;15.63;9.77;;;;;;;-143.37;100.00;65745.06;5093624;28;20287;-69
2021/10/18 07:40:22;;;;;;;15.40;10.33;;;;;;;-143.37;100.00;65745.06;5091537;28;20235;-69
2021/10/18 07:42:48;;;;;;;18.03;11.07;;;;;;;-143.37;100.00;65745.06;5093234;28;20259;-69
2021/10/18 07:45:15;;;;;;;19.27;10.43;;;;;;;-143.37;100.00;65745.06;5093126;28;20295;-69
2021/10/18 07:47:43;;;;;;;18.47;10.67;;;;;;;-143.37;100.00;65745.06;5074874;28;20233;-70
2021/10/18 07:50:11;;;;;;;20.83;10.63;;;;;;;-143.37;100.00;65745.06;5071171;28;20232;-70
2021/10/18 07:52:40;;;;;;;18.77;11.20;;;;;;;-143.37;100.00;65745.06;5071615;28;20236;-70
2021/10/18 07:55:13;;;;;;;19.83;11.40;;;;;;;-143.37;100.00;65745.06;5072692;28;20260;-69
2021/10/18 07:57:41;;;;;;;22.80;12.57;;;;;;;-143.37;100.00;65745.06;5072722;28;20232;-68
2021/10/18 08:00:09;;;;;;;22.03;11.83;;;;;;;-143.37;100.00;65745.06;5071819;28;20217;-70
2021/10/18 08:02:35;;;;;;;20.13;11.40;;;;;;;-143.37;100.00;65745.06;5071403;28;20239;-69
2021/10/18 08:05:02;;;;;;;21.87;11.70;;;;;;;-143.37;100.00;65745.06;5072890;28;20205;-70
2021/10/18 08:07:35;;;;;;;18.93;11.43;;;;;;;-143.37;100.00;65745.06;5072345;28;20291;-70
2021/10/18 08:10:05;;;;;;;21.37;11.70;;;;;;;-143.37;100.00;65745.06;5071707;28;20209;-70
2021/10/18 08:12:34;;;;;;;24.13;13.10;;;;;;;-143.37;100.00;65745.06;5071327;28;20290;-70
2021/10/18 08:15:01;;;;;;;23.67;12.70;;;;;;;-143.37;100.00;65745.06;5071405;28;20315;-70
2021/10/18 08:17:28;;;;;;;24.13;12.57;;;;;;;-143.37;100.00;65745.06;5072171;28;20295;-70
2021/10/18 08:19:54;;;;;;;21.13;11.33;;;;;;;-143.37;100.00;65745.06;5071495;28;20657;-70
2021/10/18 08:22:21;;;;;;;23.73;11.07;;;;;;;-143.37;100.00;65745.06;5072082;28;20308;-70
2021/10/18 08:24:47;;;;;;;21.23;11.77;;;;;;;-143.37;100.00;65745.06;5076647;28;20197;-70
2021/10/18 08:27:14;;;;;;;20.13;11.37;;;;;;;-143.37;100.00;65745.06;5092369;28;20232;-70
2021/10/18 08:29:40;;;;;;;23.53;12.93;;;;;;;-143.37;100.00;65745.06;5091572;28;20296;-69
2021/10/18 08:32:07;;;;;;;20.47;11.63;;;;;;;-143.37;100.00;65745.06;5090856;28;20655;-70
2021/10/18 08:34:33;;;;;;;23.53;11.27;;;;;;;-143.37;100.00;65745.06;5090886;28;20727;-70
2021/10/18 08:37:00;;;;;;;19.13;11.03;;;;;;;-143.37;100.00;65745.06;5091247;28;20210;-70
2021/10/18 08:42:15;;;;;;;23.80;12.00;;;;;;;-143.37;100.00;65745.06;5071871;28;20264;-70
2021/10/18 08:44:42;;;;;;;22.20;11.43;;;;;;;-143.37;100.00;65745.06;5071946;28;20241;-70
2021/10/18 08:47:09;;;;;;;21.37;11.27;;;;;;;-143.37;100.00;65745.06;5085333;28;20228;-70
2021/10/18 08:49:36;;;;;;;21.80;12.33;;;;;;;-143.37;100.00;65745.06;5091046;28;20212;-70
2021/10/18 08:52:04;;;;;;;20.13;11.27;;;;;;;-143.37;100.00;65745.06;5090286;28;20717;-70
2021/10/18 08:54:30;;;;;;;24.33;11.77;;;;;;;-143.37;100.00;65745.06;5091725;28;20300;-70
2021/10/18 08:56:57;;;;;;;22.53;12.40;;;;;;;-143.37;100.00;65745.06;5091843;28;20240;-70
2021/10/18 08:59:25;;;;;;;24.20;12.67;;;;;;;-143.37;100.00;65745.06;5091356;28;20232;-70
2021/10/18 09:01:54;;;;;;;19.27;11.27;;;;;;;-143.37;100.00;65745.06;5090245;28;20251;-70
2021/10/18 09:04:26;;;;;;;23.20;12.07;;;;;;;-143.37;100.00;65745.06;5091525;28;20204;-70
2021/10/18 09:06:59;;;;;;;23.43;12.13;;;;;;;-143.37;100.00;65745.06;5092059;28;20257;-70
2021/10/18 09:09:27;;;;;;;24.40;12.87;;;;;;;-143.37;100.00;65745.06;5091255;28;20224;-70
2021/10/18 09:11:59;;;;;;;24.07;11.67;;;;;;;-143.37;100.00;65745.06;5091805;28;20228;-70
2021/10/18 09:14:26;;;;;;;24.23;12.97;;;;;;;-143.37;100.00;65745.06;5093732;28;20208;-70
2021/10/18 09:16:53;;;;;;;22.03;12.77;;;;;;;-143.37;100.00;65745.06;5091761;28;20654;-70
2021/10/18 09:19:23;;;;;;;21.07;12.40;;;;;;;-143.37;100.00;65745.06;5092186;28;20248;-70
2021/10/18 09:21:55;;;;;;;23.17;11.93;;;;;;;-143.37;100.00;65745.06;5090125;28;20255;-70
2021/10/18 09:24:28;;;;;;;24.07;13.50;;;;;;;-143.37;100.00;65745.06;5091413;28;20319;-70
2021/10/18 09:26:59;;;;;;;26.73;13.40;;;;;;;-143.37;100.00;65745.06;5090273;28;20201;-70
2021/10/18 09:29:47;;;;;;;24.30;12.13;;;;;;;-143.37;100.00;65745.06;5090860;28;20204;-70
2021/10/18 09:32:30;;;;;;;20.30;10.67;;;;;;;-143.37;100.00;65745.06;5091379;28;20224;-70
2021/10/18 09:35:17;;;;;;;20.37;11.17;;;;;;;-143.37;100.00;65745.06;5090684;28;20246;-70
2021/10/18 09:37:45;;;;;;;21.23;11.80;;;;;;;-143.37;100.00;65745.06;5090064;28;20243;-70
2021/10/18 09:40:30;;;;;;;20.30;11.03;;;;;;;-143.37;100.00;65745.06;5090556;28;20235;-70
2021/10/18 09:43:03;;;;;;;25.17;11.67;;;;;;;-143.37;100.00;65745.06;5091479;28;20304;-70
2021/10/18 09:45:30;;;;;;;19.90;10.83;;;;;;;-143.37;100.00;65745.06;5090169;28;20239;-70
2021/10/18 10:54:12;;;;;;;20.73;11.00;;;;;;;-143.37;100.00;65745.06;5075528;28;20296;-71
2021/10/18 10:59:24;;;;;;;21.93;12.30;;;;;;;-143.37;100.00;65745.06;5075015;28;20288;-70
2021/10/18 11:01:53;;;;;;;19.90;11.83;;;;;;;-143.37;100.00;65745.06;5074406;28;20225;-70
2021/10/18 11:04:29;;;;;;;20.57;12.63;;;;;;;-143.37;100.00;65745.06;5073448;28;20254;-71
2021/10/18 11:07:17;;;;;;;19.03;11.93;;;;;;;-143.37;100.00;65745.06;5072403;28;20201;-71
2021/10/18 11:09:52;;;;;;;18.23;11.40;;;;;;;-143.37;100.00;65745.06;5072596;28;21289;-71
2021/10/18 11:12:24;;;;;;;17.90;11.03;;;;;;;-143.37;100.00;65745.06;5072155;28;20665;-71
2021/10/18 11:15:10;;;;;;;21.87;12.13;;;;;;;-143.37;100.00;65745.06;5072091;28;20296;-70
2021/10/18 11:17:40;;;;;;;19.87;12.20;;;;;;;-143.37;100.00;65745.06;5072100;28;20262;-71
2021/10/18 11:20:13;;;;;;;18.67;11.80;;;;;;;-143.37;100.00;65745.06;5072273;28;20241;-71
2021/10/18 11:22:42;;;;;;;19.63;12.47;;;;;;;-143.37;100.00;65745.06;5074548;28;20264;-71
2021/10/18 11:25:21;;;;;;;21.57;13.07;;;;;;;-143.37;100.00;65745.06;5081856;28;20217;-70
2021/10/18 11:27:57;;;;;;;20.10;11.83;;;;;;;-143.37;100.00;65745.06;5092999;28;20699;-71
2021/10/18 11:30:26;;;;;;;19.07;10.57;;;;;;;-143.37;100.00;65745.06;5092203;28;20248;-70
2021/10/18 11:32:56;;;;;;;20.93;11.23;;;;;;;-143.37;100.00;65745.06;5092573;28;20693;-71
2021/10/18 11:35:24;;;;;;;17.13;10.57;;;;;;;-143.37;100.00;65745.06;5092829;28;20255;-71
2021/10/18 11:37:50;;;;;;;21.13;11.80;;;;;;;-143.37;100.00;65745.06;5084672;28;20243;-71
2021/10/18 11:40:20;;;;;;;23.00;11.27;;;;;;;-143.37;100.00;65745.06;5076608;28;20643;-71
2021/10/18 11:42:56;;;;;;;17.27;10.73;;;;;;;-143.37;100.00;65745.06;5091401;28;20285;-71
2021/10/18 11:45:25;;;;;;;18.30;11.40;;;;;;;-143.37;100.00;65745.06;5091688;28;20289;-70
2021/10/18 11:47:52;;;;;;;16.20;10.20;;;;;;;-143.37;100.00;65745.06;5086086;28;20665;-71
2021/10/18 11:50:22;;;;;;;20.37;11.50;;;;;;;-143.37;100.00;65745.06;5083766;28;20652;-71
2021/10/18 11:53:00;;;;;;;19.43;11.40;;;;;;;-143.37;100.00;65745.06;5079420;28;20279;-72
2021/10/18 11:55:37;;;;;;;17.20;10.33;;;;;;;-143.37;100.00;65745.06;5080767;28;20216;-71
2021/10/18 11:58:05;;;;;;;18.33;10.63;;;;;;;-143.37;100.00;65745.06;5075281;28;20254;-71
2021/10/18 12:00:41;;;;;;;20.40;10.53;;;;;;;-143.37;100.00;65745.06;5075231;28;20685;-71
2021/10/18 12:03:18;;;;;;;17.13;10.43;;;;;;;-143.37;100.00;65745.06;5074440;28;20201;-71
2021/10/18 12:05:47;;;;;;;19.40;10.30;;;;;;;-143.37;100.00;65745.06;5072739;28;20247;-71
2021/10/18 12:08:17;;;;;;;19.23;11.00;;;;;;;-143.37;100.00;65745.06;5073555;28;20237;-71
2021/10/18 12:10:53;;;;;;;15.80;9.97;;;;;;;-143.37;100.00;65745.06;5070885;28;20201;-71
2021/10/18 12:13:25;;;;;;;18.10;11.30;;;;;;;-143.37;100.00;65745.06;5078861;28;20291;-71
2021/10/18 12:15:51;;;;;;;17.93;10.53;;;;;;;-143.37;100.00;65745.06;5085601;28;20218;-72
2021/10/18 12:18:24;;;;;;;15.40;9.80;;;;;;;-143.37;100.00;65745.06;5073516;28;20693;-72
2021/10/18 12:20:54;;;;;;;19.00;10.40;;;;;;;-143.37;100.00;65745.06;5075467;28;20327;-72
2021/10/18 12:23:25;;;;;;;16.53;10.50;;;;;;;-143.37;100.00;65745.06;5069327;28;20222;-72
2021/10/18 12:25:55;;;;;;;18.33;10.00;;;;;;;-143.37;100.00;65745.06;5088886;28;20332;-74
2021/10/18 12:28:39;;;;;;;16.90;10.07;;;;;;;-143.37;100.00;65745.06;5088706;28;20636;-74
2021/10/18 12:31:22;;;;;;;14.60;8.90;;;;;;;-143.37;100.00;65745.06;5086305;28;20248;-72
2021/10/18 12:34:04;;;;;;;13.27;7.60;;;;;;;-143.37;100.00;65745.06;5087646;28;20212;-73
2021/10/18 12:36:31;;;;;;;16.37;9.73;;;;;;;-143.37;100.00;65745.06;5088416;28;20311;-72
2021/10/18 12:39:00;;;;;;;15.53;9.70;;;;;;;-143.37;100.00;65745.06;5080116;28;20226;-73
2021/10/18 12:41:26;;;;;;;16.77;10.17;;;;;;;-143.37;100.00;65745.06;5085177;28;20228;-71
2021/10/18 12:43:53;;;;;;;14.00;9.37;;;;;;;-143.37;100.00;65745.06;5085596;28;20287;-71
2021/10/18 12:46:28;;;;;;;15.70;9.97;;;;;;;-143.37;100.00;65745.06;5087056;28;20265;-71
2021/10/18 12:49:03;;;;;;;14.97;9.63;;;;;;;-143.37;100.00;65745.06;5086140;28;20268;-71
2021/10/18 12:51:38;;;;;;;16.83;9.33;;;;;;;-143.37;100.00;65745.06;5085186;28;20232;-71
2021/10/18 12:54:27;;;;;;;14.50;8.70;;;;;;;-143.37;100.00;65745.06;5084763;28;20299;-73
2021/10/18 12:57:12;;;;;;;16.00;9.10;;;;;;;-143.37;100.00;65745.06;5087788;28;20316;-71
2021/10/18 13:00:09;;;;;;;18.30;9.20;;;;;;;-143.37;100.00;65745.06;5087235;28;20235;-74
2021/10/18 13:02:40;;;;;;;14.43;9.53;;;;;;;-143.37;100.00;65745.06;5087478;28;20224;-73
2021/10/18 13:05:06;;;;;;;16.73;8.63;;;;;;;-143.37;100.00;65745.06;5086644;28;20211;-72
2021/10/18 13:07:34;;;;;;;12.23;7.83;;;;;;;-143.37;100.00;65745.06;5087605;28;20208;-72
2021/10/18 13:10:01;;;;;;;13.37;8.63;;;;;;;-143.37;100.00;65745.06;5084576;28;20226;-71